Time;durP1;ratioP1;P1;durP2;ratioP2;P2;SDS_P1;SDS_P2;PMS_P1;PMS_P2;Temp;Humidity;BMP_temperature;BMP_pressure;BME280_temperature;BME280_humidity;BME280_pressure;Samples;Min_cycle;Max_cycle;Signal;HPM_P1;HPM_P2
2021/10/26 00:00:33;;;;;;;19.30;9.00;;;;;;;;;;5053112;28;20013;-48
2021/10/26 00:02:59;;;;;;;17.33;8.70;;;;;;;;;;5053095;28;20021;-48
2021/10/26 00:05:26;;;;;;;16.08;8.50;;;;;;;;;;5051701;28;20481;-48
2021/10/26 00:07:52;;;;;;;23.83;12.48;;;;;;;;;;5053022;28;20048;-49
2021/10/26 00:10:18;;;;;;;20.35;10.18;;;;;;;;;;5052864;28;20099;-48
2021/10/26 00:12:44;;;;;;;18.60;9.80;;;;;;;;;;5052844;28;20029;-48
2021/10/26 00:15:11;;;;;;;13.68;8.20;;;;;;;;;;5052881;28;20028;-48
2021/10/26 00:17:39;;;;;;;12.95;8.23;;;;;;;;;;5052939;28;20032;-48
2021/10/26 00:20:06;;;;;;;15.48;8.13;;;;;;;;;;5032869;28;20402;-48
2021/10/26 00:22:32;;;;;;;15.30;7.68;;;;;;;;;;5032998;28;20051;-48
2021/10/26 00:24:58;;;;;;;14.45;8.07;;;;;;;;;;5036229;28;20022;-48
2021/10/26 00:27:25;;;;;;;17.40;9.05;;;;;;;;;;5036578;28;20025;-48
2021/10/26 00:29:52;;;;;;;19.30;9.52;;;;;;;;;;5036831;28;20025;-48
2021/10/26 00:32:18;;;;;;;14.10;8.45;;;;;;;;;;5036582;28;20022;-48
2021/10/26 00:34:45;;;;;;;14.27;8.50;;;;;;;;;;5036565;28;20100;-48
2021/10/26 00:37:11;;;;;;;16.92;7.95;;;;;;;;;;5036208;28;20120;-48
2021/10/26 00:39:37;;;;;;;14.48;7.97;;;;;;;;;;5036363;28;20021;-48
2021/10/26 00:42:04;;;;;;;15.93;8.45;;;;;;;;;;5036279;28;20502;-48
2021/10/26 00:44:33;;;;;;;12.68;7.78;;;;;;;;;;5036247;28;20113;-49
2021/10/26 00:46:59;;;;;;;19.73;10.45;;;;;;;;;;5036229;28;20025;-48
2021/10/26 00:49:26;;;;;;;17.60;7.75;;;;;;;;;;5035954;28;20017;-48
2021/10/26 00:51:55;;;;;;;19.15;9.38;;;;;;;;;;5036265;28;20034;-48
2021/10/26 00:54:23;;;;;;;15.52;9.18;;;;;;;;;;5036040;28;20067;-48
2021/10/26 00:56:49;;;;;;;16.30;9.55;;;;;;;;;;5036053;28;20036;-48
2021/10/26 00:59:16;;;;;;;19.23;11.45;;;;;;;;;;5035938;28;20026;-48
2021/10/26 01:01:42;;;;;;;15.57;8.27;;;;;;;;;;5036012;28;20041;-48
2021/10/26 01:04:08;;;;;;;15.82;8.25;;;;;;;;;;5036049;28;20041;-48
2021/10/26 01:06:35;;;;;;;17.45;7.95;;;;;;;;;;5035765;28;20029;-48
2021/10/26 01:09:01;;;;;;;15.57;8.68;;;;;;;;;;5035753;28;20462;-48
2021/10/26 01:11:27;;;;;;;14.43;7.53;;;;;;;;;;5035857;28;20438;-48
2021/10/26 01:13:54;;;;;;;13.05;7.18;;;;;;;;;;5034799;28;20026;-49
2021/10/26 01:16:23;;;;;;;15.98;9.05;;;;;;;;;;5035971;28;20448;-49
2021/10/26 01:18:49;;;;;;;14.25;7.88;;;;;;;;;;5035442;28;20048;-48
2021/10/26 01:21:16;;;;;;;14.88;7.95;;;;;;;;;;5035738;28;20100;-48
2021/10/26 01:23:42;;;;;;;15.55;7.78;;;;;;;;;;5035598;28;20029;-48
2021/10/26 01:26:16;;;;;;;15.98;8.85;;;;;;;;;;5035583;28;20026;-47
2021/10/26 01:28:42;;;;;;;15.95;8.43;;;;;;;;;;5035501;28;20032;-48
2021/10/26 01:31:08;;;;;;;17.10;7.68;;;;;;;;;;5035572;28;20477;-47
2021/10/26 01:33:35;;;;;;;14.45;8.80;;;;;;;;;;5035549;28;20038;-48
2021/10/26 01:36:01;;;;;;;18.17;9.10;;;;;;;;;;5034999;28;20022;-48
2021/10/26 01:38:27;;;;;;;20.33;9.82;;;;;;;;;;5035258;28;20037;-48
2021/10/26 01:41:00;;;;;;;13.45;7.82;;;;;;;;;;5035109;28;20032;-48
2021/10/26 01:43:27;;;;;;;14.20;7.32;;;;;;;;;;5035253;28;20485;-48
2021/10/26 01:45:54;;;;;;;12.43;7.10;;;;;;;;;;5035537;28;20033;-48
2021/10/26 01:48:23;;;;;;;12.75;6.90;;;;;;;;;;5035061;28;20022;-48
2021/10/26 01:50:58;;;;;;;14.88;7.72;;;;;;;;;;5035080;28;20022;-48
2021/10/26 01:53:26;;;;;;;14.60;8.00;;;;;;;;;;5034990;28;20097;-48
2021/10/26 01:55:55;;;;;;;16.98;8.30;;;;;;;;;;5033950;28;20110;-48
2021/10/26 01:58:21;;;;;;;20.20;7.57;;;;;;;;;;5035178;28;20022;-48
2021/10/26 02:00:47;;;;;;;16.23;9.00;;;;;;;;;;5035093;28;20402;-48
2021/10/26 02:03:13;;;;;;;14.45;6.82;;;;;;;;;;5035076;28;20076;-48
2021/10/26 02:05:40;;;;;;;13.68;7.78;;;;;;;;;;5034789;28;20087;-48
2021/10/26 02:08:06;;;;;;;18.33;10.18;;;;;;;;;;5034629;28;20029;-47
2021/10/26 02:10:32;;;;;;;14.25;7.82;;;;;;;;;;5034516;28;20022;-47
2021/10/26 02:12:58;;;;;;;14.38;8.23;;;;;;;;;;5034584;28;20079;-48
2021/10/26 02:15:24;;;;;;;16.15;8.93;;;;;;;;;;5034711;28;20025;-49
2021/10/26 02:17:50;;;;;;;17.42;8.45;;;;;;;;;;5034726;28;20029;-49
2021/10/26 02:20:17;;;;;;;15.57;8.10;;;;;;;;;;5034607;28;20629;-52
2021/10/26 02:22:43;;;;;;;16.65;8.45;;;;;;;;;;5034560;28;20135;-48
2021/10/26 02:25:09;;;;;;;13.00;7.30;;;;;;;;;;5034199;28;20021;-49
2021/10/26 02:27:35;;;;;;;13.95;8.15;;;;;;;;;;5034376;28;20022;-49
2021/10/26 02:30:06;;;;;;;16.15;7.57;;;;;;;;;;5034381;28;20025;-49
2021/10/26 02:32:32;;;;;;;15.30;8.25;;;;;;;;;;5034370;28;20499;-53
2021/10/26 02:34:58;;;;;;;14.60;8.38;;;;;;;;;;5034387;28;20029;-49
2021/10/26 02:37:25;;;;;;;16.02;8.50;;;;;;;;;;5033801;28;20061;-49
2021/10/26 02:39:51;;;;;;;18.38;9.02;;;;;;;;;;5033827;28;20397;-49
2021/10/26 02:42:17;;;;;;;16.27;8.13;;;;;;;;;;5034080;28;20025;-49
2021/10/26 02:44:43;;;;;;;20.75;10.68;;;;;;;;;;5034049;28;20036;-49
2021/10/26 02:47:12;;;;;;;13.02;7.68;;;;;;;;;;5033405;28;20044;-50
2021/10/26 02:49:38;;;;;;;16.40;9.85;;;;;;;;;;5032866;28;20026;-49
2021/10/26 02:52:04;;;;;;;15.60;8.57;;;;;;;;;;5033963;28;20021;-50
2021/10/26 02:54:30;;;;;;;12.38;7.25;;;;;;;;;;5033709;28;20385;-49
2021/10/26 02:56:56;;;;;;;15.60;9.00;;;;;;;;;;5033991;28;20112;-49
2021/10/26 02:59:24;;;;;;;16.10;9.02;;;;;;;;;;5033746;28;20500;-49
2021/10/26 03:01:51;;;;;;;11.85;6.88;;;;;;;;;;5033941;28;20039;-49
2021/10/26 03:04:17;;;;;;;17.58;8.50;;;;;;;;;;5033877;28;20405;-49
2021/10/26 03:06:43;;;;;;;15.10;7.95;;;;;;;;;;5033845;28;20031;-49
2021/10/26 03:09:10;;;;;;;14.65;7.93;;;;;;;;;;5033573;28;20481;-49
2021/10/26 03:11:37;;;;;;;22.10;10.98;;;;;;;;;;5033615;28;20021;-49
2021/10/26 03:14:04;;;;;;;11.82;7.88;;;;;;;;;;5033651;28;20029;-49
2021/10/26 03:16:30;;;;;;;16.48;7.72;;;;;;;;;;5033521;28;20025;-50
2021/10/26 03:18:56;;;;;;;14.20;7.93;;;;;;;;;;5033368;28;20042;-50
2021/10/26 03:21:23;;;;;;;14.57;7.88;;;;;;;;;;5033131;28;20095;-49
2021/10/26 03:23:49;;;;;;;17.27;8.43;;;;;;;;;;5031835;28;20065;-49
2021/10/26 03:26:15;;;;;;;19.30;9.57;;;;;;;;;;5032980;28;20393;-49
2021/10/26 03:28:41;;;;;;;13.50;8.15;;;;;;;;;;5033059;28;20025;-49
2021/10/26 03:31:07;;;;;;;19.73;9.32;;;;;;;;;;5032962;28;20033;-49
2021/10/26 03:33:33;;;;;;;15.52;8.52;;;;;;;;;;5032929;28;20029;-50
2021/10/26 03:36:04;;;;;;;15.35;8.45;;;;;;;;;;5032741;28;20485;-49
2021/10/26 03:38:33;;;;;;;15.23;7.78;;;;;;;;;;5032946;28;20037;-49
2021/10/26 03:40:59;;;;;;;14.38;8.80;;;;;;;;;;5033309;28;20044;-49
2021/10/26 03:43:25;;;;;;;16.33;8.93;;;;;;;;;;5032983;28;20029;-50
2021/10/26 03:45:52;;;;;;;18.45;9.88;;;;;;;;;;5033132;28;20046;-49
2021/10/26 03:48:19;;;;;;;17.90;9.98;;;;;;;;;;5032978;28;20026;-49
2021/10/26 03:50:46;;;;;;;24.40;10.38;;;;;;;;;;5032916;28;20060;-49
2021/10/26 03:53:12;;;;;;;18.85;9.25;;;;;;;;;;5033381;28;20026;-49
2021/10/26 03:55:40;;;;;;;19.63;8.98;;;;;;;;;;5032586;28;20031;-49
2021/10/26 03:58:10;;;;;;;21.55;10.27;;;;;;;;;;5033333;28;20300;-49
2021/10/26 04:00:36;;;;;;;19.50;10.02;;;;;;;;;;5036852;28;20025;-49
2021/10/26 04:03:04;;;;;;;15.98;9.10;;;;;;;;;;5036874;28;20477;-51
2021/10/26 04:08:38;;;;;;;18.67;8.73;;;;;;;;;;5014912;28;20054;-48
2021/10/26 04:11:11;;;;;;;19.58;8.65;;;;;;;;;;5014588;28;20117;-50
2021/10/26 04:13:37;;;;;;;17.38;9.35;;;;;;;;;;5014719;28;20091;-51
2021/10/26 04:16:03;;;;;;;19.00;8.82;;;;;;;;;;5014635;28;20026;-50
2021/10/26 04:18:30;;;;;;;14.55;8.18;;;;;;;;;;5014412;28;20205;-48
2021/10/26 04:20:56;;;;;;;13.98;8.68;;;;;;;;;;5014741;28;20113;-48
2021/10/26 04:23:22;;;;;;;15.50;8.98;;;;;;;;;;5014515;28;20393;-49
2021/10/26 04:25:49;;;;;;;19.88;10.02;;;;;;;;;;5014336;28;20040;-48
2021/10/26 04:28:15;;;;;;;19.92;10.15;;;;;;;;;;5014418;28;20024;-49
2021/10/26 04:30:41;;;;;;;18.80;10.27;;;;;;;;;;5014322;28;20041;-49
2021/10/26 04:33:08;;;;;;;30.88;12.68;;;;;;;;;;5014216;28;20080;-49
2021/10/26 04:35:35;;;;;;;26.23;10.23;;;;;;;;;;5014256;28;20422;-48
2021/10/26 04:38:02;;;;;;;20.52;10.27;;;;;;;;;;5014067;28;20050;-48
2021/10/26 04:40:28;;;;;;;23.15;10.32;;;;;;;;;;5013965;28;20084;-48
2021/10/26 04:42:54;;;;;;;18.73;10.27;;;;;;;;;;5028762;28;20102;-49
2021/10/26 04:45:22;;;;;;;16.27;8.55;;;;;;;;;;5035880;28;20386;-48
2021/10/26 04:47:48;;;;;;;19.48;9.80;;;;;;;;;;5036015;28;20463;-48
2021/10/26 04:50:15;;;;;;;15.77;9.13;;;;;;;;;;5035712;28;20483;-49
2021/10/26 04:52:42;;;;;;;18.08;9.48;;;;;;;;;;5035868;28;20028;-49
2021/10/26 04:55:10;;;;;;;16.13;9.82;;;;;;;;;;5035748;28;20028;-48
2021/10/26 04:57:41;;;;;;;22.25;10.77;;;;;;;;;;5035746;28;20044;-48
2021/10/26 05:00:09;;;;;;;17.20;9.80;;;;;;;;;;5035649;28;20029;-48
2021/10/26 05:02:38;;;;;;;16.35;8.13;;;;;;;;;;5035677;28;20097;-51
2021/10/26 05:05:05;;;;;;;18.20;10.35;;;;;;;;;;5035653;28;20028;-49
2021/10/26 05:07:31;;;;;;;16.58;8.40;;;;;;;;;;5035572;28;20034;-49
2021/10/26 05:09:57;;;;;;;16.20;9.93;;;;;;;;;;5034992;28;20431;-48
2021/10/26 05:12:23;;;;;;;25.35;11.20;;;;;;;;;;5035433;28;20029;-48
2021/10/26 05:14:50;;;;;;;12.98;8.27;;;;;;;;;;5035192;28;20034;-48
2021/10/26 05:17:21;;;;;;;17.15;9.65;;;;;;;;;;5035377;28;20025;-49
2021/10/26 05:19:50;;;;;;;16.77;8.18;;;;;;;;;;5035123;28;20095;-48
2021/10/26 05:22:19;;;;;;;15.45;8.55;;;;;;;;;;5035275;28;20017;-49
2021/10/26 05:24:45;;;;;;;19.00;8.57;;;;;;;;;;5034088;28;20553;-48
2021/10/26 05:27:12;;;;;;;14.57;9.00;;;;;;;;;;5035090;28;20026;-51
2021/10/26 05:29:39;;;;;;;15.98;9.50;;;;;;;;;;5034935;28;20108;-49
2021/10/26 05:32:05;;;;;;;14.27;9.05;;;;;;;;;;5035013;28;20022;-51
2021/10/26 05:34:32;;;;;;;16.83;9.18;;;;;;;;;;5035189;28;20029;-52
2021/10/26 05:36:58;;;;;;;18.80;9.27;;;;;;;;;;5034658;28;20041;-49
2021/10/26 05:39:27;;;;;;;15.95;8.02;;;;;;;;;;5034816;28;20040;-49
2021/10/26 05:41:53;;;;;;;17.20;9.75;;;;;;;;;;5034679;28;20025;-53
2021/10/26 05:44:19;;;;;;;16.63;11.30;;;;;;;;;;5034728;28;20029;-49
2021/10/26 05:46:45;;;;;;;22.00;12.85;;;;;;;;;;5034710;28;20017;-49
2021/10/26 05:49:11;;;;;;;20.52;12.52;;;;;;;;;;5033507;28;20029;-50
2021/10/26 05:51:38;;;;;;;20.45;10.85;;;;;;;;;;5034830;28;20020;-48
2021/10/26 05:54:04;;;;;;;18.15;9.27;;;;;;;;;;5035282;28;20123;-48
2021/10/26 05:56:30;;;;;;;20.50;10.57;;;;;;;;;;5033938;28;20034;-48
2021/10/26 05:58:56;;;;;;;15.75;9.98;;;;;;;;;;5033482;28;20037;-48
2021/10/26 06:01:23;;;;;;;13.38;8.77;;;;;;;;;;5034730;28;20018;-48
2021/10/26 06:03:52;;;;;;;19.80;9.85;;;;;;;;;;5034654;28;20073;-49
2021/10/26 06:06:18;;;;;;;21.98;11.82;;;;;;;;;;5034687;28;20028;-49
2021/10/26 06:08:49;;;;;;;19.30;10.02;;;;;;;;;;5034677;28;20358;-48
2021/10/26 06:11:19;;;;;;;20.95;10.50;;;;;;;;;;5034625;28;20024;-48
2021/10/26 06:13:48;;;;;;;17.17;8.82;;;;;;;;;;5034669;28;20045;-49
2021/10/26 06:16:14;;;;;;;19.92;11.18;;;;;;;;;;5034579;28;20032;-49
2021/10/26 06:18:40;;;;;;;20.25;10.30;;;;;;;;;;5034640;28;20467;-49
2021/10/26 06:21:06;;;;;;;16.20;8.52;;;;;;;;;;5033604;28;20034;-49
2021/10/26 06:23:33;;;;;;;17.73;10.25;;;;;;;;;;5034327;28;20025;-48
2021/10/26 06:26:00;;;;;;;17.48;9.80;;;;;;;;;;5034466;28;20520;-49
2021/10/26 06:28:29;;;;;;;21.48;9.68;;;;;;;;;;5034378;28;20017;-49
2021/10/26 06:30:58;;;;;;;15.40;9.32;;;;;;;;;;5034239;28;20026;-48
2021/10/26 06:33:24;;;;;;;15.48;9.18;;;;;;;;;;5034518;28;20381;-49
2021/10/26 06:35:51;;;;;;;16.92;9.25;;;;;;;;;;5034146;28;20037;-48
2021/10/26 06:38:17;;;;;;;13.40;8.02;;;;;;;;;;5033917;28;20053;-48
2021/10/26 06:40:43;;;;;;;15.20;8.02;;;;;;;;;;5034526;28;20055;-48
2021/10/26 06:43:09;;;;;;;12.60;8.50;;;;;;;;;;5034112;28;20025;-49
2021/10/26 06:45:35;;;;;;;17.33;13.05;;;;;;;;;;5033951;28;20028;-49
2021/10/26 06:48:01;;;;;;;13.23;8.25;;;;;;;;;;5034303;28;20022;-49
2021/10/26 06:50:27;;;;;;;17.35;8.23;;;;;;;;;;5033988;28;20110;-49
2021/10/26 06:52:54;;;;;;;11.68;8.20;;;;;;;;;;5034086;28;20026;-48
2021/10/26 06:55:20;;;;;;;13.63;7.82;;;;;;;;;;5033982;28;20156;-48
2021/10/26 06:57:49;;;;;;;12.55;8.23;;;;;;;;;;5034037;28;20021;-49
2021/10/26 07:00:16;;;;;;;12.18;7.40;;;;;;;;;;5033799;28;20116;-48
2021/10/26 07:02:46;;;;;;;12.85;7.25;;;;;;;;;;5033823;28;20519;-47
2021/10/26 07:05:12;;;;;;;31.45;18.40;;;;;;;;;;5033739;28;20029;-48
2021/10/26 07:07:38;;;;;;;55.70;33.20;;;;;;;;;;5033490;28;20029;-53
2021/10/26 07:10:05;;;;;;;21.52;12.88;;;;;;;;;;5033703;28;20024;-47
2021/10/26 07:12:31;;;;;;;15.18;9.40;;;;;;;;;;5033604;28;20031;-46
2021/10/26 07:14:58;;;;;;;26.23;16.48;;;;;;;;;;5033478;28;20488;-48
2021/10/26 07:17:24;;;;;;;48.10;22.48;;;;;;;;;;5033553;28;20029;-46
2021/10/26 07:19:50;;;;;;;21.40;11.23;;;;;;;;;;5033310;28;20514;-46
2021/10/26 07:22:16;;;;;;;24.35;12.52;;;;;;;;;;5033462;28;20022;-46
2021/10/26 07:24:42;;;;;;;27.48;16.17;;;;;;;;;;5033529;28;20371;-46
2021/10/26 07:27:09;;;;;;;11.23;8.07;;;;;;;;;;5033326;28;20026;-49
2021/10/26 07:29:35;;;;;;;12.60;8.38;;;;;;;;;;5033425;28;20041;-48
2021/10/26 07:32:01;;;;;;;18.50;13.63;;;;;;;;;;5033061;28;20480;-47
2021/10/26 07:34:30;;;;;;;19.63;11.82;;;;;;;;;;5033320;28;20036;-49
2021/10/26 07:36:56;;;;;;;22.13;12.70;;;;;;;;;;5032935;28;20046;-47
2021/10/26 07:41:52;;;;;;;29.17;17.27;;;;;;;;;;5032953;28;20028;-49
2021/10/26 07:44:20;;;;;;;40.22;24.80;;;;;;;;;;5033038;28;20371;-48
2021/10/26 07:46:46;;;;;;;16.40;6.93;;;;;;;;;;5033033;28;20026;-47
2021/10/26 07:49:12;;;;;;;15.10;8.35;;;;;;;;;;5032902;28;20021;-50
2021/10/26 07:51:39;;;;;;;9.98;7.30;;;;;;;;;;5033007;28;20025;-48
2021/10/26 07:54:07;;;;;;;9.65;6.57;;;;;;;;;;5031686;28;20112;-48
2021/10/26 07:56:33;;;;;;;10.80;7.47;;;;;;;;;;5032875;28;20017;-52
2021/10/26 07:59:02;;;;;;;12.48;7.18;;;;;;;;;;5032962;28;20049;-49
2021/10/26 08:01:28;;;;;;;21.20;11.95;;;;;;;;;;5032945;28;20381;-48
2021/10/26 08:03:56;;;;;;;14.68;8.40;;;;;;;;;;5033116;28;20027;-49
2021/10/26 08:06:22;;;;;;;12.82;7.40;;;;;;;;;;5032921;28;20076;-51
2021/10/26 08:08:49;;;;;;;10.55;7.25;;;;;;;;;;5032955;28;20029;-49
2021/10/26 08:11:17;;;;;;;14.38;9.10;;;;;;;;;;5032908;28;20025;-49
2021/10/26 08:13:43;;;;;;;11.85;7.82;;;;;;;;;;5032774;28;20032;-47
2021/10/26 08:16:09;;;;;;;13.48;7.35;;;;;;;;;;5032780;28;20022;-51
2021/10/26 08:18:36;;;;;;;13.10;7.45;;;;;;;;;;5032114;28;20094;-49
2021/10/26 08:21:02;;;;;;;40.22;16.48;;;;;;;;;;5032754;28;20030;-50
2021/10/26 08:23:28;;;;;;;13.73;7.35;;;;;;;;;;5032892;28;20021;-49
2021/10/26 08:25:58;;;;;;;10.57;7.20;;;;;;;;;;5032667;28;20035;-48
2021/10/26 08:28:24;;;;;;;7.43;6.60;;;;;;;;;;5032844;28;20021;-48
2021/10/26 08:31:08;;;;;;;12.32;7.25;;;;;;;;;;5032647;28;20416;-50
2021/10/26 08:33:40;;;;;;;10.32;7.22;;;;;;;;;;5032731;28;20100;-48
2021/10/26 08:36:08;;;;;;;15.60;8.18;;;;;;;;;;5032549;28;20025;-49
2021/10/26 08:38:35;;;;;;;10.38;7.40;;;;;;;;;;5032533;28;20017;-48
2021/10/26 08:41:01;;;;;;;22.00;10.25;;;;;;;;;;5032674;28;20033;-48
2021/10/26 08:43:30;;;;;;;10.32;7.00;;;;;;;;;;5032635;28;20021;-49
2021/10/26 08:45:59;;;;;;;11.15;6.93;;;;;;;;;;5035881;28;20032;-48
2021/10/26 08:48:29;;;;;;;12.40;7.10;;;;;;;;;;5036173;28;20024;-48
2021/10/26 08:50:57;;;;;;;14.20;7.93;;;;;;;;;;5036187;28;20036;-48
2021/10/26 08:53:26;;;;;;;13.10;6.32;;;;;;;;;;5036138;28;20474;-48
2021/10/26 08:55:56;;;;;;;14.05;7.18;;;;;;;;;;5035942;28;20470;-49
2021/10/26 08:58:29;;;;;;;12.67;6.57;;;;;;;;;;5036151;28;20111;-48
2021/10/26 09:00:59;;;;;;;13.85;6.50;;;;;;;;;;5035814;28;20049;-49
2021/10/26 09:03:29;;;;;;;16.20;8.30;;;;;;;;;;5035967;28;20021;-47
2021/10/26 09:05:55;;;;;;;12.32;7.88;;;;;;;;;;5035793;28;20029;-48
2021/10/26 09:08:28;;;;;;;12.85;7.30;;;;;;;;;;5035924;28;20033;-49
2021/10/26 09:10:55;;;;;;;11.02;7.05;;;;;;;;;;5035778;28;20071;-47
2021/10/26 09:16:40;;;;;;;16.67;7.97;;;;;;;;;;5036040;28;20064;-48
2021/10/26 09:19:15;;;;;;;16.50;8.52;;;;;;;;;;5035449;28;20030;-50
2021/10/26 09:21:42;;;;;;;13.88;6.60;;;;;;;;;;5035874;28;20099;-47
2021/10/26 09:24:11;;;;;;;14.43;8.05;;;;;;;;;;5035604;28;20021;-48
2021/10/26 09:27:03;;;;;;;13.43;8.02;;;;;;;;;;5035579;28;20022;-49
2021/10/26 09:29:35;;;;;;;16.10;8.93;;;;;;;;;;5033483;28;20037;-48
2021/10/26 09:32:22;;;;;;;16.27;7.95;;;;;;;;;;5035375;28;20041;-49
2021/10/26 09:34:54;;;;;;;17.98;8.52;;;;;;;;;;5035259;28;20017;-48
2021/10/26 09:37:20;;;;;;;;;;;;;;;;;;5035575;28;20045;-48
2021/10/26 09:40:05;;;;;;;23.77;12.63;;;;;;;;;;5035257;28;19920;-50
2021/10/26 09:42:40;;;;;;;12.00;7.45;;;;;;;;;;5035229;28;20045;-50
2021/10/26 09:45:07;;;;;;;17.30;8.88;;;;;;;;;;5035117;28;20030;-50
2021/10/26 09:47:37;;;;;;;20.60;10.20;;;;;;;;;;5034969;28;20035;-52
2021/10/26 09:50:10;;;;;;;23.70;12.45;;;;;;;;;;5035523;28;20385;-48
2021/10/26 09:52:37;;;;;;;23.45;13.65;;;;;;;;;;5035091;28;20026;-48
2021/10/26 09:55:29;;;;;;;22.55;10.77;;;;;;;;;;5035092;28;20037;-49
2021/10/26 09:57:59;;;;;;;16.08;9.23;;;;;;;;;;5034913;28;20027;-48
2021/10/26 10:00:33;;;;;;;16.15;8.20;;;;;;;;;;5035004;28;20037;-50
2021/10/26 10:03:12;;;;;;;13.63;7.53;;;;;;;;;;5035377;28;20028;-49
2021/10/26 10:05:38;;;;;;;13.77;8.45;;;;;;;;;;5034778;28;20032;-50
2021/10/26 10:08:20;;;;;;;13.30;7.78;;;;;;;;;;5034774;28;20035;-51
2021/10/26 10:10:46;;;;;;;13.60;7.20;;;;;;;;;;5033959;28;20142;-50
2021/10/26 10:13:13;;;;;;;17.40;10.25;;;;;;;;;;5034901;28;20025;-50
2021/10/26 10:15:42;;;;;;;16.27;8.38;;;;;;;;;;5034805;28;20049;-48
2021/10/26 10:18:08;;;;;;;20.42;11.77;;;;;;;;;;5035153;28;20032;-48
2021/10/26 10:20:37;;;;;;;13.85;8.02;;;;;;;;;;5034614;28;20385;-50
2021/10/26 10:23:08;;;;;;;13.55;7.38;;;;;;;;;;5034381;28;20120;-49
2021/10/26 10:25:34;;;;;;;14.75;9.20;;;;;;;;;;5034468;28;20022;-49
2021/10/26 10:28:02;;;;;;;27.42;12.45;;;;;;;;;;5034393;28;20025;-49
2021/10/26 10:30:28;;;;;;;14.38;8.00;;;;;;;;;;5034332;28;20474;-49
2021/10/26 10:32:54;;;;;;;15.98;8.20;;;;;;;;;;5034300;28;20037;-49
2021/10/26 10:35:21;;;;;;;14.80;9.05;;;;;;;;;;5034511;28;20133;-49
2021/10/26 10:37:48;;;;;;;16.80;8.90;;;;;;;;;;5034132;28;20052;-49
2021/10/26 10:40:22;;;;;;;15.93;9.95;;;;;;;;;;5034203;28;20041;-50
2021/10/26 10:42:50;;;;;;;14.35;9.32;;;;;;;;;;5033958;28;20025;-48
2021/10/26 10:45:24;;;;;;;15.13;8.20;;;;;;;;;;5034052;28;20105;-48
2021/10/26 10:47:51;;;;;;;11.73;8.45;;;;;;;;;;5034264;28;20052;-49
2021/10/26 10:50:23;;;;;;;12.80;7.63;;;;;;;;;;5034240;28;20051;-48
2021/10/26 10:53:27;;;;;;;13.32;8.48;;;;;;;;;;5034102;28;20359;-49
2021/10/26 10:56:11;;;;;;;15.15;8.68;;;;;;;;;;4992491;28;20034;-51
2021/10/26 10:58:39;;;;;;;18.30;8.75;;;;;;;;;;4992321;28;20506;-48
2021/10/26 11:01:24;;;;;;;12.98;7.90;;;;;;;;;;4992237;28;20537;-48
2021/10/26 11:03:51;;;;;;;15.20;8.20;;;;;;;;;;4992532;28;20050;-49
2021/10/26 11:06:38;;;;;;;12.13;8.20;;;;;;;;;;4992053;28;20044;-48
2021/10/26 11:09:22;;;;;;;12.32;8.00;;;;;;;;;;4992377;28;20034;-49
2021/10/26 11:12:06;;;;;;;17.15;10.40;;;;;;;;;;4992305;28;20039;-48
2021/10/26 11:14:42;;;;;;;15.00;7.97;;;;;;;;;;4992541;28;20438;-48
2021/10/26 11:17:27;;;;;;;12.50;8.40;;;;;;;;;;4992378;28;20030;-49
2021/10/26 11:19:57;;;;;;;13.70;7.85;;;;;;;;;;4992018;28;20042;-48
2021/10/26 11:22:41;;;;;;;14.38;7.90;;;;;;;;;;4992212;28;20038;-49
2021/10/26 11:25:22;;;;;;;14.25;8.00;;;;;;;;;;4991861;28;20018;-48
2021/10/26 11:27:49;;;;;;;14.63;7.80;;;;;;;;;;5032370;28;20041;-48
2021/10/26 11:30:32;;;;;;;18.05;8.95;;;;;;;;;;5033367;28;20116;-49
2021/10/26 11:33:11;;;;;;;12.55;8.13;;;;;;;;;;5033528;28;20025;-49
2021/10/26 11:36:00;;;;;;;14.10;8.07;;;;;;;;;;5033542;28;20022;-48
2021/10/26 11:38:30;;;;;;;11.40;7.70;;;;;;;;;;5033202;28;20046;-49
2021/10/26 11:40:57;;;;;;;12.83;7.77;;;;;;;;;;5033527;28;20040;-49
2021/10/26 11:43:30;;;;;;;15.05;7.97;;;;;;;;;;5033313;28;20461;-48
2021/10/26 11:45:57;;;;;;;10.57;7.80;;;;;;;;;;5033162;28;20040;-48
2021/10/26 11:48:42;;;;;;;11.43;7.63;;;;;;;;;;5033083;28;20133;-48
2021/10/26 11:51:27;;;;;;;13.70;8.20;;;;;;;;;;5033327;28;20025;-48
2021/10/26 11:53:56;;;;;;;16.77;8.80;;;;;;;;;;5033217;28;20107;-49
2021/10/26 11:56:28;;;;;;;11.88;7.90;;;;;;;;;;5033157;28;20095;-49
2021/10/26 11:58:58;;;;;;;14.35;8.05;;;;;;;;;;5033084;28;20078;-49
2021/10/26 12:01:40;;;;;;;17.13;10.35;;;;;;;;;;5033261;28;20068;-48
2021/10/26 12:04:18;;;;;;;26.98;9.85;;;;;;;;;;5033100;28;20026;-49
2021/10/26 12:06:45;;;;;;;16.33;8.85;;;;;;;;;;5033228;28;20072;-49
2021/10/26 12:09:13;;;;;;;16.25;7.90;;;;;;;;;;5033134;28;20025;-48
2021/10/26 12:11:42;;;;;;;12.27;7.78;;;;;;;;;;5032973;28;20029;-50
2021/10/26 12:14:15;;;;;;;17.02;7.97;;;;;;;;;;5033003;28;20056;-52
2021/10/26 12:17:03;;;;;;;13.35;8.68;;;;;;;;;;5032964;28;20064;-49
2021/10/26 12:19:30;;;;;;;14.45;8.52;;;;;;;;;;5033912;28;20021;-52
2021/10/26 12:21:57;;;;;;;12.32;8.10;;;;;;;;;;5036530;28;20038;-52
2021/10/26 12:24:29;;;;;;;14.18;9.10;;;;;;;;;;5036811;28;20033;-52
2021/10/26 12:27:10;;;;;;;15.00;8.75;;;;;;;;;;5036656;28;20025;-49
2021/10/26 12:29:38;;;;;;;15.52;9.95;;;;;;;;;;5036653;28;20028;-52
2021/10/26 12:32:05;;;;;;;13.15;9.07;;;;;;;;;;5036840;28;20026;-48
2021/10/26 12:34:38;;;;;;;15.68;9.43;;;;;;;;;;5036498;28;20067;-49
2021/10/26 12:37:17;;;;;;;18.33;10.55;;;;;;;;;;5036454;28;20525;-50
2021/10/26 12:39:48;;;;;;;17.42;9.40;;;;;;;;;;5035405;28;20132;-52
2021/10/26 12:42:33;;;;;;;14.13;9.25;;;;;;;;;;5036341;28;20496;-50
2021/10/26 12:44:59;;;;;;;19.25;9.77;;;;;;;;;;5036422;28;20428;-48
2021/10/26 12:47:29;;;;;;;15.30;9.57;;;;;;;;;;5036423;28;20025;-51
2021/10/26 12:49:55;;;;;;;17.65;9.35;;;;;;;;;;5036428;28;20394;-51
2021/10/26 12:52:23;;;;;;;17.73;10.20;;;;;;;;;;5036349;28;20425;-49
2021/10/26 12:54:49;;;;;;;18.17;9.77;;;;;;;;;;5036187;28;20021;-48
2021/10/26 12:57:15;;;;;;;15.85;9.23;;;;;;;;;;5036029;28;20129;-47
2021/10/26 12:59:41;;;;;;;17.00;9.45;;;;;;;;;;5034595;28;20025;-47
2021/10/26 13:02:11;;;;;;;14.20;9.35;;;;;;;;;;5035969;28;20033;-51
2021/10/26 13:04:41;;;;;;;13.23;8.65;;;;;;;;;;5036303;28;20030;-49
2021/10/26 13:07:09;;;;;;;15.55;8.90;;;;;;;;;;5035654;28;20030;-49
2021/10/26 13:09:37;;;;;;;14.63;8.93;;;;;;;;;;5035900;28;20029;-47
2021/10/26 13:12:11;;;;;;;16.13;10.73;;;;;;;;;;5035873;28;20018;-49
2021/10/26 13:14:41;;;;;;;15.82;8.85;;;;;;;;;;5035750;28;20060;-53
2021/10/26 13:17:23;;;;;;;18.38;9.80;;;;;;;;;;5035655;28;20029;-47
2021/10/26 13:19:50;;;;;;;15.38;9.85;;;;;;;;;;5035559;28;20029;-48
2021/10/26 13:22:16;;;;;;;13.75;10.18;;;;;;;;;;5035861;28;20035;-48
2021/10/26 13:24:43;;;;;;;18.15;10.30;;;;;;;;;;5035668;28;20036;-52
2021/10/26 13:27:10;;;;;;;17.67;10.88;;;;;;;;;;5035472;28;20022;-48
2021/10/26 13:29:48;;;;;;;14.57;9.15;;;;;;;;;;5036438;28;20071;-51
2021/10/26 13:32:21;;;;;;;21.50;11.27;;;;;;;;;;5044160;28;20030;-49
2021/10/26 13:34:48;;;;;;;19.88;11.32;;;;;;;;;;5043871;28;20021;-47
2021/10/26 13:37:14;;;;;;;27.38;14.93;;;;;;;;;;5045125;28;20562;-46
2021/10/26 13:39:45;;;;;;;25.33;11.77;;;;;;;;;;5044971;28;20025;-50
2021/10/26 13:42:11;;;;;;;16.30;10.90;;;;;;;;;;5041176;28;20599;-47
2021/10/26 13:44:42;;;;;;;32.47;17.52;;;;;;;;;;5045027;28;20021;-47
2021/10/26 13:47:08;;;;;;;25.85;16.33;;;;;;;;;;5045775;28;20381;-47
2021/10/26 13:49:38;;;;;;;33.53;18.67;;;;;;;;;;5044028;28;20489;-47
2021/10/26 13:52:07;;;;;;;34.33;17.67;;;;;;;;;;5043620;28;20029;-47
2021/10/26 13:54:33;;;;;;;21.08;12.75;;;;;;;;;;5043661;28;20501;-47
2021/10/26 13:57:04;;;;;;;23.65;14.27;;;;;;;;;;5044292;28;20028;-47
2021/10/26 13:59:30;;;;;;;22.58;13.07;;;;;;;;;;5045148;28;20032;-47
2021/10/26 14:01:59;;;;;;;27.17;16.38;;;;;;;;;;5044107;28;20096;-46
2021/10/26 14:04:25;;;;;;;14.95;10.68;;;;;;;;;;5044531;28;20025;-48
2021/10/26 14:06:52;;;;;;;39.92;24.00;;;;;;;;;;5051429;28;20116;-47
2021/10/26 14:09:18;;;;;;;20.77;11.23;;;;;;;;;;5045311;28;20018;-46
2021/10/26 14:11:45;;;;;;;21.15;11.98;;;;;;;;;;5044446;28;20075;-45
2021/10/26 14:14:19;;;;;;;17.70;10.23;;;;;;;;;;5029083;28;20373;-45
2021/10/26 14:16:45;;;;;;;24.13;12.05;;;;;;;;;;5004650;28;20022;-45
2021/10/26 14:19:11;;;;;;;32.45;17.20;;;;;;;;;;5034595;28;20030;-45
2021/10/26 14:21:37;;;;;;;31.90;19.27;;;;;;;;;;5002706;28;20038;-46
2021/10/26 14:24:03;;;;;;;21.10;13.10;;;;;;;;;;5003252;28;20027;-49
2021/10/26 14:26:29;;;;;;;32.75;18.95;;;;;;;;;;5002772;28;20105;-46
2021/10/26 14:28:56;;;;;;;23.83;11.80;;;;;;;;;;5002679;28;20017;-45
2021/10/26 14:31:28;;;;;;;21.67;13.38;;;;;;;;;;5004140;28;20475;-48
2021/10/26 14:33:57;;;;;;;29.40;18.33;;;;;;;;;;5003957;28;20018;-49
2021/10/26 14:36:50;;;;;;;46.38;26.33;;;;;;;;;;5002413;28;20862;-48
2021/10/26 14:39:26;;;;;;;26.42;14.20;;;;;;;;;;5003904;28;20458;-48
2021/10/26 14:52:54;;;;;;;29.80;15.23;;;;;;;;;;5002830;28;20452;-47
2021/10/26 14:55:46;;;;;;;32.30;15.57;;;;;;;;;;5002284;28;20427;-47